createdAt,value
2018-10-03T00:00:25.954Z,2.4
2018-10-03T00:04:27.009Z,1.86
2018-10-03T00:10:27.747Z,3.22
2018-10-03T00:14:28.539Z,2.89
2018-10-03T00:20:29.286Z,2.26
2018-10-03T00:26:30.160Z,2.72
2018-10-03T00:30:31.056Z,2.42
2018-10-03T00:36:31.746Z,2.55
2018-10-03T00:40:32.542Z,2.34
2018-10-03T00:46:33.422Z,2.41
2018-10-03T00:52:34.293Z,2.68
2018-10-03T00:56:35.209Z,2.23
2018-10-03T01:02:36.061Z,2.36
2018-10-03T01:06:36.981Z,2.29
2018-10-03T01:08:37.943Z,2.48
2018-10-03T01:12:38.815Z,2.4
2018-10-03T01:18:39.835Z,2.95
2018-10-03T01:22:40.777Z,2.49
2018-10-03T01:28:41.788Z,2.95
2018-10-03T01:32:42.651Z,2.55
2018-10-03T01:38:43.744Z,2.78
2018-10-03T01:44:44.764Z,3.52
2018-10-03T01:48:45.594Z,2.96
2018-10-03T01:54:46.643Z,3.55
2018-10-03T01:58:47.469Z,3.35
2018-10-03T02:00:48.389Z,3.47
2018-10-03T02:04:49.285Z,3.3
2018-10-03T02:10:50.241Z,3.07
2018-10-03T02:14:51.310Z,2.81
2018-10-03T02:20:52.048Z,2.98
2018-10-03T02:24:52.953Z,2.67
2018-10-03T02:24:52.970Z,2.67
2018-10-03T02:30:53.922Z,2.65
2018-10-03T02:36:54.808Z,2.78
2018-10-03T02:40:55.767Z,2.48
2018-10-03T02:46:57.003Z,3.19
2018-10-03T02:50:57.921Z,2.95
2018-10-03T02:56:58.857Z,2.99
2018-10-03T03:02:59.675Z,2.86
2018-10-03T03:07:06.202Z,3.07
2018-10-03T03:13:07.139Z,3.56
2018-10-03T03:17:08.090Z,3.12
2018-10-03T03:23:08.928Z,4.03
2018-10-03T03:29:09.616Z,2.98
2018-10-03T03:33:10.498Z,2.53
2018-10-03T03:39:11.331Z,2.43
2018-10-03T03:43:12.128Z,2.23
2018-10-03T03:49:12.869Z,2.38
2018-10-03T03:55:13.691Z,2.47
2018-10-03T03:59:14.388Z,2.11
2018-10-03T04:05:15.220Z,3.49
2018-10-03T04:09:16.012Z,2.99
2018-10-03T04:15:17.098Z,2.95
2018-10-03T04:21:17.956Z,3.37
2018-10-03T04:21:17.958Z,3.37
2018-10-03T04:25:18.655Z,2.8
2018-10-03T04:31:19.490Z,2.79
2018-10-03T04:35:20.227Z,2.49
2018-10-03T04:41:20.999Z,2.65
2018-10-03T04:47:21.812Z,3.03
2018-10-03T04:51:22.692Z,2.54
2018-10-03T04:57:23.539Z,3.59
2018-10-03T05:01:24.314Z,3.26
2018-10-03T05:07:24.971Z,2.89
2018-10-03T05:13:25.773Z,3.51
2018-10-03T05:17:26.498Z,3.07
2018-10-03T05:23:27.293Z,2.93
2018-10-03T05:27:28.119Z,2.57
2018-10-03T05:33:28.907Z,2.87
2018-10-03T05:39:29.722Z,3.41
2018-10-03T05:43:30.408Z,2.77
2018-10-03T05:49:31.133Z,4.03
2018-10-03T05:53:31.947Z,3.49
2018-10-03T05:55:32.673Z,3.59
2018-10-03T05:59:33.479Z,3.34
2018-10-03T06:05:34.390Z,3.07
2018-10-03T06:09:35.291Z,3.02
2018-10-03T06:15:36.210Z,2.86
2018-10-03T06:19:37.035Z,2.29
2018-10-03T06:21:37.747Z,2.56
2018-10-03T06:25:38.481Z,2.54
2018-10-03T06:31:39.292Z,4.93
2018-10-03T06:35:40.222Z,4.21
2018-10-03T06:41:40.857Z,4.49
2018-10-03T06:45:41.766Z,4.2
2018-10-03T06:47:42.826Z,6.16
2018-10-03T06:51:43.683Z,6.26
2018-10-03T06:57:44.468Z,7.35
2018-10-03T07:01:45.436Z,6.25
2018-10-03T07:07:46.472Z,7.37
2018-10-03T07:11:47.243Z,6.64
2018-10-03T07:13:48.026Z,7.7
2018-10-03T07:17:48.881Z,6.7
2018-10-03T07:23:49.582Z,9.19
2018-10-03T07:27:50.396Z,9.01
2018-10-03T07:33:51.079Z,9.69
2018-10-03T07:37:51.907Z,8.89
2018-10-03T07:39:52.854Z,8.01
2018-10-03T07:43:53.556Z,7.67
2018-10-03T07:49:54.378Z,7.47
2018-10-03T07:54:05.757Z,6.92
2018-10-03T08:04:20.332Z,6.45
2018-10-03T08:04:20.799Z,6.69
2018-10-03T08:10:24.622Z,6.59
2018-10-03T08:20:40.884Z,6.45
2018-10-03T08:20:41.048Z,6.2
2018-10-03T08:24:45.705Z,5.96
2018-10-03T08:26:47.648Z,6.58
2018-10-03T08:30:48.331Z,6.16
2018-10-03T08:36:49.174Z,6.85
2018-10-03T08:40:49.882Z,5.97
2018-10-03T08:46:52.554Z,6.36
2018-10-03T08:57:03.674Z,4.56
2018-10-03T08:57:03.984Z,5.86
2018-10-03T09:03:12.924Z,3.79
2018-10-03T09:07:17.991Z,3.79
2018-10-03T09:13:19.459Z,3.8
2018-10-03T09:23:24.208Z,2.91
2018-10-03T09:23:24.440Z,3.69
2018-10-03T09:27:25.361Z,2.72
2018-10-03T09:29:26.362Z,3.29
2018-10-03T09:33:27.296Z,3.02
2018-10-03T09:39:28.113Z,3.62
2018-10-03T09:43:28.780Z,3.13
2018-10-03T09:49:29.754Z,4.98
2018-10-03T09:53:30.802Z,4.59
2018-10-03T09:55:31.662Z,4.52
2018-10-03T09:59:32.280Z,3.68
2018-10-03T10:05:33.165Z,3.22
2018-10-03T10:09:34.162Z,3.08
2018-10-03T10:15:34.964Z,4.06
2018-10-03T10:19:35.765Z,3.97
2018-10-03T10:21:36.544Z,3.53
2018-10-03T10:25:37.367Z,3.21
2018-10-03T10:31:38.320Z,3.52
2018-10-03T10:35:38.960Z,3.45
2018-10-03T10:41:39.911Z,3.49
2018-10-03T10:45:40.578Z,3.37
2018-10-03T10:47:41.273Z,3.68
2018-10-03T10:51:42.061Z,3.1
2018-10-03T10:57:43.831Z,3.18
2018-10-03T11:01:45.478Z,3.04
2018-10-03T11:07:46.419Z,3.6
2018-10-03T11:11:47.175Z,3
2018-10-03T11:13:48.007Z,3.09
2018-10-03T11:17:48.834Z,2.46
2018-10-03T11:23:54.817Z,2.76
2018-10-03T11:27:57.054Z,2.15
2018-10-03T11:33:58.666Z,1.36
2018-10-03T11:38:01.136Z,1.01
2018-10-03T11:44:02.404Z,1
2018-10-03T11:50:06.826Z,1.2
2018-10-03T11:54:07.990Z,0.95
2018-10-03T12:00:08.916Z,1.26
2018-10-03T12:04:10.207Z,0.94
2018-10-03T12:10:11.031Z,1.1
2018-10-03T12:16:11.949Z,1.18
2018-10-03T12:20:12.818Z,0.93
2018-10-03T12:26:13.658Z,0.94
2018-10-03T12:30:14.457Z,0.87
2018-10-03T12:36:15.304Z,1.14
2018-10-03T12:42:15.983Z,0.97
2018-10-03T12:46:16.931Z,1.08
2018-10-03T12:52:18.044Z,1.1
2018-10-03T12:56:18.822Z,1.07
2018-10-03T13:02:19.896Z,1.04
2018-10-03T13:08:20.747Z,1.05
2018-10-03T13:12:21.503Z,0.89
2018-10-03T13:18:22.286Z,0.93
2018-10-03T13:22:23.186Z,1.01
2018-10-03T13:28:24.057Z,0.85
2018-10-03T13:34:24.875Z,1.2
2018-10-03T13:38:25.531Z,0.81
2018-10-03T13:44:26.578Z,0.92
2018-10-03T13:48:27.291Z,0.85
2018-10-03T13:54:28.035Z,0.99
2018-10-03T14:00:29.205Z,0.95
2018-10-03T14:04:30.097Z,0.83
2018-10-03T14:10:30.713Z,1.03
2018-10-03T14:14:31.462Z,0.85
2018-10-03T14:16:32.220Z,1.07
2018-10-03T14:20:33.062Z,0.75
2018-10-03T14:26:33.981Z,1.03
2018-10-03T14:30:35.317Z,0.78
2018-10-03T14:36:36.009Z,1
2018-10-03T14:40:36.890Z,1.04
2018-10-03T14:42:37.681Z,0.99
2018-10-03T14:46:38.508Z,0.88
2018-10-03T14:52:39.283Z,0.94
2018-10-03T14:56:39.927Z,0.91
2018-10-03T15:02:40.831Z,1.45
2018-10-03T15:06:41.591Z,0.88
2018-10-03T15:08:42.529Z,1.04
2018-10-03T15:12:43.368Z,0.76
2018-10-03T15:18:44.201Z,0.84
2018-10-03T15:22:45.181Z,0.89
2018-10-03T15:28:45.854Z,1.02
2018-10-03T15:32:46.793Z,0.7
2018-10-03T15:34:47.522Z,1.08
2018-10-03T15:38:48.178Z,0.73
2018-10-03T15:44:49.025Z,0.93
2018-10-03T15:48:49.924Z,0.9
2018-10-03T15:54:51.091Z,1.3
2018-10-03T15:58:51.801Z,1.27
2018-10-03T16:00:56.288Z,1.33
2018-10-03T16:04:57.301Z,1.24
2018-10-03T16:10:58.111Z,2.04
2018-10-03T16:14:58.948Z,1.62
2018-10-03T16:20:59.624Z,2.11
2018-10-03T16:25:00.704Z,1.57
2018-10-03T16:27:01.390Z,1.42
2018-10-03T16:31:02.050Z,1.19
2018-10-03T16:37:02.861Z,1.46
2018-10-03T16:41:03.845Z,1.27
2018-10-03T16:47:04.980Z,2.32
2018-10-03T16:51:05.720Z,1.89
2018-10-03T16:53:06.543Z,2.33
